createdAt,value
2023-10-10T00:01:46.015Z,3.80
2023-10-10T00:04:13.884Z,3.33
2023-10-10T00:06:42.234Z,3.78
2023-10-10T00:09:12.221Z,3.88
2023-10-10T00:11:43.374Z,3.67
2023-10-10T00:14:19.294Z,3.83
2023-10-10T00:16:49.313Z,3.67
2023-10-10T00:19:21.926Z,3.17
2023-10-10T00:21:49.967Z,3.42
2023-10-10T00:24:21.685Z,3.60
2023-10-10T00:26:51.722Z,3.80
2023-10-10T00:29:27.879Z,3.90
2023-10-10T00:32:07.019Z,3.50
2023-10-10T00:34:38.493Z,3.70
2023-10-10T00:37:14.453Z,4.07
2023-10-10T00:39:42.140Z,3.33
2023-10-10T00:42:20.997Z,3.55
2023-10-10T00:44:49.749Z,3.38
2023-10-10T00:47:22.742Z,3.70
2023-10-10T00:49:51.568Z,3.80
2023-10-10T00:52:19.649Z,3.33
2023-10-10T00:54:48.511Z,3.67
2023-10-10T00:57:18.920Z,3.50
2023-10-10T00:59:54.773Z,3.60
2023-10-10T01:02:22.265Z,3.35
2023-10-10T01:04:51.493Z,3.95
2023-10-10T01:07:23.031Z,3.75
2023-10-10T01:09:57.830Z,3.80
2023-10-10T01:12:30.191Z,4.05
2023-10-10T01:14:58.992Z,3.30
2023-10-10T01:17:33.817Z,3.92
2023-10-10T01:20:35.312Z,3.50
2023-10-10T01:23:04.518Z,3.67
2023-10-10T01:25:34.117Z,3.70
2023-10-10T01:28:15.082Z,3.95
2023-10-10T01:30:58.689Z,3.55
2023-10-10T01:33:37.957Z,3.70
2023-10-10T01:36:23.064Z,3.28
2023-10-10T01:39:01.319Z,4.22
2023-10-10T01:41:41.459Z,3.35
2023-10-10T01:44:24.306Z,4.00
2023-10-10T01:46:54.512Z,3.22
2023-10-10T01:49:23.054Z,3.42
2023-10-10T01:51:57.422Z,3.65
2023-10-10T01:54:36.130Z,3.35
2023-10-10T01:57:08.617Z,3.75
2023-10-10T01:59:40.156Z,4.35
2023-10-10T02:02:12.203Z,4.78
2023-10-10T02:04:40.873Z,4.60
2023-10-10T02:07:15.514Z,3.80
2023-10-10T02:09:44.922Z,3.97
2023-10-10T02:12:18.215Z,4.45
2023-10-10T02:14:45.372Z,4.97
2023-10-10T02:17:28.128Z,4.38
2023-10-10T02:19:59.583Z,4.70
2023-10-10T02:22:48.958Z,4.47
2023-10-10T02:25:25.892Z,4.35
2023-10-10T02:27:56.616Z,4.20
2023-10-10T02:30:38.176Z,4.32
2023-10-10T02:33:18.347Z,4.07
2023-10-10T02:36:04.534Z,3.97
2023-10-10T02:38:34.593Z,4.25
2023-10-10T02:41:34.524Z,4.15
2023-10-10T02:44:11.258Z,4.95
2023-10-10T02:46:44.105Z,3.90
2023-10-10T02:49:31.789Z,3.70
2023-10-10T02:52:02.432Z,3.90
2023-10-10T02:54:35.792Z,4.00
2023-10-10T02:57:23.235Z,4.40
2023-10-10T03:00:00.646Z,3.85
2023-10-10T03:02:31.841Z,4.13
2023-10-10T03:05:03.037Z,4.10
2023-10-10T03:07:31.464Z,4.07
2023-10-10T03:10:23.794Z,4.05
2023-10-10T03:12:54.151Z,4.68
2023-10-10T03:15:21.609Z,4.47
2023-10-10T03:18:10.705Z,4.47
2023-10-10T03:20:38.910Z,4.30
2023-10-10T03:23:15.710Z,4.18
2023-10-10T03:26:05.393Z,4.10
2023-10-10T03:28:48.749Z,3.60
2023-10-10T03:31:15.950Z,4.13
2023-10-10T03:33:44.983Z,4.00
2023-10-10T03:36:19.984Z,3.95
2023-10-10T03:38:50.197Z,4.90
2023-10-10T03:41:24.990Z,3.58
2023-10-10T03:44:15.620Z,4.07
2023-10-10T03:46:56.982Z,4.25
2023-10-10T03:49:51.774Z,3.90
2023-10-10T03:52:43.889Z,3.90
2023-10-10T03:55:30.040Z,3.72
2023-10-10T03:58:15.609Z,4.30
2023-10-10T04:01:00.862Z,4.05
2023-10-10T04:03:46.363Z,4.20
2023-10-10T04:06:32.446Z,4.13
2023-10-10T04:09:17.889Z,3.97
2023-10-10T04:12:03.642Z,4.10
2023-10-10T04:14:49.148Z,3.90
2023-10-10T04:17:34.637Z,4.70
2023-10-10T04:20:20.350Z,4.85
2023-10-10T04:23:05.508Z,4.20
2023-10-10T04:25:50.979Z,3.67
2023-10-10T04:28:36.243Z,4.72
2023-10-10T04:31:25.743Z,4.28
2023-10-10T04:34:11.854Z,4.00
2023-10-10T04:36:57.249Z,4.20
2023-10-10T04:39:43.091Z,4.60
2023-10-10T04:42:28.438Z,4.10
2023-10-10T04:45:13.945Z,4.18
2023-10-10T04:47:59.704Z,4.20
2023-10-10T04:50:45.424Z,4.28
2023-10-10T04:53:30.683Z,4.65
2023-10-10T04:56:17.393Z,4.45
2023-10-10T04:59:03.179Z,4.38
2023-10-10T05:01:48.899Z,4.13
2023-10-10T05:04:34.419Z,4.38
2023-10-10T05:07:19.751Z,4.20
2023-10-10T05:10:05.153Z,4.20
2023-10-10T05:12:50.526Z,4.10
2023-10-10T05:15:35.670Z,5.03
2023-10-10T05:18:20.787Z,4.50
2023-10-10T05:21:06.481Z,3.88
2023-10-10T05:23:36.299Z,4.22
2023-10-10T05:26:07.270Z,3.88
2023-10-10T05:28:34.257Z,3.97
2023-10-10T05:31:04.746Z,4.35
2023-10-10T05:33:32.235Z,3.90
2023-10-10T05:36:01.056Z,4.47
2023-10-10T05:38:28.171Z,4.38
2023-10-10T05:40:55.679Z,6.57
2023-10-10T05:43:27.762Z,10.57
2023-10-10T05:45:55.424Z,7.47
2023-10-10T05:48:23.130Z,7.38
2023-10-10T05:50:50.159Z,6.05
2023-10-10T05:53:18.418Z,5.10
2023-10-10T05:55:51.639Z,4.97
2023-10-10T05:58:19.483Z,5.57
2023-10-10T06:00:50.494Z,5.65
2023-10-10T06:03:18.391Z,5.32
2023-10-10T06:05:45.823Z,4.93
2023-10-10T06:08:14.355Z,5.13
2023-10-10T06:10:41.404Z,5.05
2023-10-10T06:13:08.813Z,4.82
2023-10-10T06:15:36.530Z,5.05
2023-10-10T06:18:19.625Z,4.38
2023-10-10T06:23:35.257Z,4.60
2023-10-10T06:26:03.897Z,4.93
2023-10-10T06:28:37.270Z,4.68
2023-10-10T06:31:11.501Z,5.40
2023-10-10T06:33:42.485Z,4.57
2023-10-10T06:36:40.135Z,4.90
2023-10-10T06:39:06.931Z,4.57
2023-10-10T06:41:43.454Z,4.65
2023-10-10T06:44:18.622Z,4.57
2023-10-10T06:46:49.935Z,5.43
2023-10-10T06:49:17.371Z,5.20
2023-10-10T06:51:44.408Z,5.10
2023-10-10T06:54:28.827Z,5.13
2023-10-10T06:57:02.364Z,5.22
2023-10-10T06:59:30.282Z,4.80
2023-10-10T07:02:01.757Z,4.72
2023-10-10T07:04:29.336Z,4.95
2023-10-10T07:07:02.100Z,4.65
2023-10-10T07:09:32.637Z,4.82
2023-10-10T07:12:12.833Z,5.97
2023-10-10T07:14:48.243Z,4.97
2023-10-10T07:17:15.889Z,4.90
2023-10-10T07:20:03.957Z,5.10
2023-10-10T07:22:35.896Z,4.78
2023-10-10T07:25:25.742Z,4.25
2023-10-10T07:27:52.665Z,4.30
2023-10-10T07:30:19.960Z,4.65
2023-10-10T07:32:51.675Z,4.57
2023-10-10T07:35:26.763Z,4.82
2023-10-10T07:37:54.463Z,4.72
2023-10-10T07:40:22.338Z,5.40
2023-10-10T07:43:00.381Z,4.78
2023-10-10T07:45:43.255Z,5.07
2023-10-10T07:48:11.550Z,4.93
2023-10-10T07:50:57.251Z,5.13
2023-10-10T07:53:35.429Z,4.82
2023-10-10T07:56:02.624Z,5.28
2023-10-10T07:58:52.757Z,5.53
2023-10-10T08:01:20.743Z,4.85
2023-10-10T08:03:48.746Z,4.50
2023-10-10T08:06:23.503Z,4.65
2023-10-10T08:09:12.081Z,5.00
2023-10-10T08:11:39.394Z,4.80
2023-10-10T08:14:13.299Z,5.13
2023-10-10T08:16:42.339Z,5.00
2023-10-10T08:19:11.850Z,4.90
2023-10-10T08:21:40.741Z,4.90
2023-10-10T08:24:09.307Z,5.05
2023-10-10T08:26:42.588Z,4.35
2023-10-10T08:29:10.645Z,4.90
2023-10-10T08:31:39.419Z,5.45
2023-10-10T08:34:09.816Z,4.88
2023-10-10T08:36:38.500Z,4.40
2023-10-10T08:39:18.033Z,4.43
2023-10-10T08:41:46.485Z,3.60
2023-10-10T08:44:18.817Z,4.25
2023-10-10T08:49:17.287Z,3.88
2023-10-10T08:51:46.310Z,3.97
2023-10-10T08:54:17.289Z,3.83
2023-10-10T08:57:11.576Z,4.00
2023-10-10T08:59:43.566Z,4.30
2023-10-10T09:02:13.727Z,3.63
2023-10-10T09:04:40.688Z,3.80
2023-10-10T09:07:12.470Z,3.35
2023-10-10T09:09:41.201Z,3.30
2023-10-10T09:12:16.188Z,3.80
2023-10-10T09:14:51.546Z,3.88
2023-10-10T09:17:46.496Z,3.47
2023-10-10T09:20:24.453Z,3.85
2023-10-10T09:23:13.365Z,3.58
2023-10-10T09:25:45.164Z,3.45
2023-10-10T09:28:16.674Z,2.73
2023-10-10T09:31:06.601Z,3.22
2023-10-10T09:33:35.184Z,3.50
2023-10-10T09:36:10.268Z,3.20
2023-10-10T09:38:45.109Z,3.63
2023-10-10T09:41:32.431Z,3.80
2023-10-10T09:44:25.464Z,3.40
2023-10-10T09:47:04.013Z,3.33
2023-10-10T09:49:53.045Z,3.30
2023-10-10T09:52:40.843Z,3.83
2023-10-10T09:55:15.553Z,3.60
2023-10-10T09:57:59.364Z,3.83
2023-10-10T10:00:34.470Z,3.53
2023-10-10T10:03:22.065Z,3.20
2023-10-10T10:06:19.332Z,3.90
2023-10-10T10:09:10.635Z,3.92
2023-10-10T10:11:53.076Z,3.92
2023-10-10T10:14:29.889Z,3.40
2023-10-10T10:17:17.314Z,4.15
2023-10-10T10:19:49.304Z,3.58
2023-10-10T10:22:18.754Z,3.60
2023-10-10T10:24:46.366Z,3.30
2023-10-10T10:27:33.201Z,3.72
2023-10-10T10:30:20.756Z,3.63
2023-10-10T10:32:54.767Z,3.58
2023-10-10T10:35:37.567Z,3.20
2023-10-10T10:38:07.926Z,3.83
2023-10-10T10:40:41.578Z,3.10
2023-10-10T10:43:15.746Z,3.10
2023-10-10T10:46:08.573Z,3.28
2023-10-10T10:48:36.725Z,3.22
2023-10-10T10:51:26.274Z,3.03
2023-10-10T10:54:03.474Z,3.38
2023-10-10T10:56:31.084Z,3.40
2023-10-10T10:59:15.325Z,3.30
2023-10-10T11:01:52.887Z,3.15
2023-10-10T11:04:44.437Z,3.45
2023-10-10T11:07:27.365Z,3.72
2023-10-10T11:09:55.901Z,3.45
2023-10-10T11:12:33.256Z,3.47
2023-10-10T11:15:06.182Z,3.25
2023-10-10T11:17:39.482Z,3.30
2023-10-10T11:20:29.377Z,3.45
2023-10-10T11:23:08.704Z,3.22
2023-10-10T11:25:48.236Z,3.08
2023-10-10T11:28:25.633Z,3.53
2023-10-10T11:30:54.443Z,3.05
2023-10-10T11:33:47.484Z,2.80
2023-10-10T11:36:31.312Z,3.35
2023-10-10T11:39:18.165Z,3.70
2023-10-10T11:41:46.757Z,3.42
2023-10-10T11:44:20.295Z,3.50
2023-10-10T11:46:48.325Z,3.25
2023-10-10T11:49:16.736Z,3.22
2023-10-10T11:51:43.629Z,3.47
2023-10-10T11:54:10.560Z,3.38
2023-10-10T11:56:37.406Z,3.50
2023-10-10T11:59:11.519Z,4.15
2023-10-10T12:01:58.704Z,3.72
2023-10-10T12:04:34.592Z,3.40
2023-10-10T12:07:06.171Z,3.30
2023-10-10T12:09:34.031Z,3.78
2023-10-10T12:12:04.258Z,3.20
2023-10-10T12:14:32.519Z,3.15
2023-10-10T12:17:00.745Z,3.30
2023-10-10T12:19:30.278Z,3.38
2023-10-10T12:22:02.662Z,3.65
2023-10-10T12:24:30.714Z,3.38
2023-10-10T12:26:57.560Z,3.53
2023-10-10T12:29:25.846Z,3.85
2023-10-10T12:31:57.040Z,3.42
2023-10-10T12:34:24.872Z,3.40
2023-10-10T12:37:00.545Z,4.10
2023-10-10T12:39:31.091Z,3.40
2023-10-10T12:41:58.372Z,3.20
2023-10-10T12:44:25.346Z,3.08
2023-10-10T12:47:00.368Z,3.15
2023-10-10T12:49:30.359Z,4.07
2023-10-10T12:51:58.323Z,3.47
2023-10-10T12:54:36.093Z,3.20
2023-10-10T12:57:07.303Z,3.45
2023-10-10T12:59:35.075Z,3.17
2023-10-10T13:02:04.885Z,3.17
2023-10-10T13:04:37.562Z,3.03
2023-10-10T13:07:05.114Z,3.45
2023-10-10T13:09:33.662Z,3.33
2023-10-10T13:12:04.327Z,3.47
2023-10-10T13:14:34.401Z,2.85
2023-10-10T13:17:22.067Z,3.22
2023-10-10T13:19:50.356Z,3.70
2023-10-10T13:22:22.175Z,3.50
2023-10-10T13:24:50.493Z,3.05
2023-10-10T13:27:19.223Z,3.53
2023-10-10T13:29:46.318Z,3.40
2023-10-10T13:32:13.418Z,3.13
2023-10-10T13:34:40.270Z,3.40
2023-10-10T13:37:09.109Z,3.42
2023-10-10T13:39:45.402Z,3.33
2023-10-10T13:42:15.941Z,3.53
2023-10-10T13:44:43.805Z,3.50
2023-10-10T13:47:11.704Z,3.50
2023-10-10T13:49:45.734Z,3.60
2023-10-10T13:52:14.351Z,3.40
2023-10-10T13:54:41.387Z,3.15
2023-10-10T13:57:09.001Z,3.22
2023-10-10T13:59:36.412Z,3.40
2023-10-10T14:02:05.764Z,3.53
2023-10-10T14:04:47.564Z,3.70
2023-10-10T14:07:17.959Z,3.65
2023-10-10T14:10:02.299Z,4.10
2023-10-10T14:12:33.560Z,3.28
2023-10-10T14:15:02.718Z,3.63
2023-10-10T14:17:31.034Z,3.67
2023-10-10T14:19:59.683Z,3.92
2023-10-10T14:22:28.185Z,3.58
2023-10-10T14:27:27.084Z,3.38
2023-10-10T14:29:56.099Z,4.05
2023-10-10T14:32:38.748Z,3.58
2023-10-10T14:35:07.016Z,3.80
2023-10-10T14:37:49.949Z,3.72
2023-10-10T14:40:20.925Z,3.50
2023-10-10T14:42:47.726Z,3.90
2023-10-10T14:45:14.619Z,3.55
2023-10-10T14:47:45.160Z,3.53
2023-10-10T14:50:14.287Z,3.63
2023-10-10T14:52:48.435Z,3.28
2023-10-10T14:55:28.912Z,4.00
2023-10-10T14:57:57.361Z,3.95
2023-10-10T15:00:26.150Z,3.60
2023-10-10T15:02:56.761Z,3.67
2023-10-10T15:05:27.797Z,3.78
2023-10-10T15:07:55.631Z,3.78
2023-10-10T15:10:27.421Z,3.53
2023-10-10T15:12:55.100Z,3.40
2023-10-10T15:15:24.280Z,3.85
2023-10-10T15:17:51.767Z,3.92
2023-10-10T15:20:18.716Z,3.80
2023-10-10T15:22:45.522Z,4.00
2023-10-10T15:25:13.012Z,4.22
2023-10-10T15:27:43.053Z,4.07
2023-10-10T15:30:10.774Z,3.65
2023-10-10T15:32:57.884Z,3.55
2023-10-10T15:35:25.326Z,4.15
2023-10-10T15:37:53.641Z,4.28
2023-10-10T15:40:23.593Z,4.03
2023-10-10T15:42:52.422Z,3.88
2023-10-10T15:45:22.667Z,4.22
2023-10-10T15:47:54.412Z,4.32
2023-10-10T15:50:25.276Z,3.90
2023-10-10T15:52:52.513Z,4.13
2023-10-10T15:55:24.568Z,4.40
2023-10-10T16:00:31.208Z,3.83
2023-10-10T16:02:58.150Z,3.80
2023-10-10T16:05:26.583Z,4.30
2023-10-10T16:08:08.338Z,4.10
2023-10-10T16:10:38.889Z,4.25
2023-10-10T16:13:08.865Z,4.15
2023-10-10T16:15:35.728Z,4.20
2023-10-10T16:18:05.512Z,4.10
2023-10-10T16:20:36.743Z,3.78
2023-10-10T16:23:04.317Z,3.97
2023-10-10T16:25:31.158Z,3.67
2023-10-10T16:27:59.199Z,3.83
2023-10-10T16:30:26.667Z,3.88
2023-10-10T16:32:53.556Z,4.30
2023-10-10T16:35:21.918Z,4.22
2023-10-10T16:37:50.165Z,4.25
2023-10-10T16:40:18.734Z,4.53
2023-10-10T16:42:46.864Z,4.50
2023-10-10T16:45:13.916Z,5.05
2023-10-10T16:47:43.640Z,4.63
2023-10-10T16:50:11.164Z,4.93
2023-10-10T16:52:41.863Z,4.65
2023-10-10T16:55:13.568Z,4.47
2023-10-10T16:57:41.614Z,4.70
2023-10-10T17:00:14.262Z,4.35
2023-10-10T17:02:41.373Z,4.70
2023-10-10T17:05:14.708Z,5.05
2023-10-10T17:07:42.077Z,6.05
2023-10-10T17:10:14.988Z,6.32
2023-10-10T17:12:45.905Z,5.43
2023-10-10T17:15:20.189Z,5.20
2023-10-10T17:17:47.796Z,6.80
2023-10-10T17:20:18.236Z,5.80
2023-10-10T17:22:52.028Z,6.28
2023-10-10T17:25:19.619Z,5.90
2023-10-10T17:27:50.862Z,5.18
2023-10-10T17:30:17.933Z,6.15
2023-10-10T17:32:47.426Z,4.75
2023-10-10T17:35:14.664Z,5.90
2023-10-10T17:37:41.535Z,5.75
2023-10-10T17:40:14.418Z,5.18
2023-10-10T17:42:47.533Z,5.57
2023-10-10T17:45:14.603Z,5.38
2023-10-10T17:47:41.771Z,6.38
2023-10-10T17:50:09.053Z,5.25
2023-10-10T17:52:35.955Z,4.85
2023-10-10T17:55:03.163Z,5.10
2023-10-10T17:57:32.256Z,5.35
2023-10-10T18:00:00.336Z,5.70
2023-10-10T18:02:27.353Z,5.35
2023-10-10T18:04:54.994Z,6.20
2023-10-10T18:07:24.777Z,5.90
2023-10-10T18:09:55.875Z,5.47
2023-10-10T18:12:23.885Z,6.40
2023-10-10T18:14:54.958Z,5.57
2023-10-10T18:17:23.595Z,5.18
2023-10-10T18:19:51.233Z,6.10
2023-10-10T18:22:20.042Z,6.10
2023-10-10T18:24:48.686Z,5.45
2023-10-10T18:27:18.182Z,5.60
2023-10-10T18:29:45.394Z,5.07
2023-10-10T18:32:12.409Z,5.13
2023-10-10T18:34:42.955Z,5.72
2023-10-10T18:37:14.121Z,5.47
2023-10-10T18:39:43.719Z,5.13
2023-10-10T18:42:12.946Z,5.35
2023-10-10T18:44:41.207Z,5.30
2023-10-10T18:47:10.510Z,4.82
2023-10-10T18:49:37.354Z,5.72
2023-10-10T18:52:06.242Z,5.47
2023-10-10T18:54:33.555Z,5.75
2023-10-10T18:57:00.520Z,5.22
2023-10-10T18:59:29.139Z,5.13
2023-10-10T19:01:57.143Z,4.63
2023-10-10T19:04:24.311Z,5.72
2023-10-10T19:06:51.526Z,5.43
2023-10-10T19:09:19.558Z,5.63
2023-10-10T19:11:46.751Z,5.13
2023-10-10T19:14:14.379Z,5.63
2023-10-10T19:16:41.512Z,6.07
2023-10-10T19:19:08.797Z,6.38
2023-10-10T19:21:36.124Z,7.03
2023-10-10T19:24:03.337Z,6.70
2023-10-10T19:26:30.567Z,7.13
2023-10-10T19:28:58.699Z,7.50
2023-10-10T19:31:25.704Z,7.35
2023-10-10T19:33:52.738Z,6.93
2023-10-10T19:36:21.496Z,7.00
2023-10-10T19:38:49.113Z,7.00
2023-10-10T19:41:16.204Z,6.93
2023-10-10T19:43:43.211Z,7.07
2023-10-10T19:46:13.015Z,6.85
2023-10-10T19:48:43.883Z,5.90
2023-10-10T19:51:18.817Z,6.28
2023-10-10T19:53:50.528Z,6.43
2023-10-10T19:56:18.292Z,6.70
2023-10-10T19:58:47.168Z,6.60
2023-10-10T20:01:15.054Z,7.03
2023-10-10T20:03:44.715Z,6.63
2023-10-10T20:06:22.740Z,6.63
2023-10-10T20:08:54.253Z,7.10
2023-10-10T20:11:22.810Z,6.20
2023-10-10T20:13:50.693Z,6.65
2023-10-10T20:16:20.654Z,6.13
2023-10-10T20:18:48.946Z,6.15
2023-10-10T20:21:17.793Z,7.28
2023-10-10T20:23:45.451Z,6.28
2023-10-10T20:26:20.508Z,7.03
2023-10-10T20:28:49.360Z,7.00
2023-10-10T20:31:19.822Z,6.90
2023-10-10T20:33:49.053Z,6.25
2023-10-10T20:36:18.115Z,7.13
2023-10-10T20:38:45.881Z,6.63
2023-10-10T20:41:15.549Z,6.55
2023-10-10T20:43:44.084Z,6.80
2023-10-10T20:46:20.394Z,6.85
2023-10-10T20:48:48.023Z,7.28
2023-10-10T20:51:15.047Z,6.38
2023-10-10T20:53:46.962Z,6.72
2023-10-10T20:56:14.664Z,7.07
2023-10-10T20:58:41.726Z,6.60
2023-10-10T21:01:13.298Z,6.80
2023-10-10T21:03:40.559Z,6.93
2023-10-10T21:06:07.551Z,7.43
2023-10-10T21:08:34.690Z,6.78
2023-10-10T21:11:08.286Z,6.40
2023-10-10T21:13:35.958Z,7.03
2023-10-10T21:16:03.186Z,6.35
2023-10-10T21:18:30.078Z,7.00
2023-10-10T21:21:04.109Z,6.88
2023-10-10T21:23:32.458Z,6.72
2023-10-10T21:25:59.400Z,6.78
2023-10-10T21:28:26.443Z,6.65
2023-10-10T21:30:54.036Z,6.95
2023-10-10T21:33:21.038Z,6.57
2023-10-10T21:35:50.823Z,7.10
2023-10-10T21:38:18.641Z,6.75
2023-10-10T21:40:45.847Z,7.43
2023-10-10T21:43:12.912Z,7.68
2023-10-10T21:45:40.361Z,6.65
2023-10-10T21:48:10.860Z,6.93
2023-10-10T21:50:42.206Z,6.40
2023-10-10T21:53:09.431Z,6.72
2023-10-10T21:55:38.667Z,6.65
2023-10-10T21:58:06.431Z,6.70
2023-10-10T22:00:33.612Z,7.07
2023-10-10T22:03:05.947Z,6.57
2023-10-10T22:05:33.800Z,8.20
2023-10-10T22:08:01.884Z,7.38
2023-10-10T22:10:33.739Z,8.02
2023-10-10T22:13:07.878Z,7.20
2023-10-10T22:15:36.430Z,6.90
2023-10-10T22:18:07.629Z,6.78
2023-10-10T22:20:35.494Z,5.95
2023-10-10T22:23:02.754Z,7.05
2023-10-10T22:25:33.265Z,6.85
2023-10-10T22:28:02.062Z,6.53
2023-10-10T22:30:33.880Z,6.47
2023-10-10T22:33:01.474Z,6.72
2023-10-10T22:35:29.871Z,7.95
2023-10-10T22:37:59.982Z,7.13
2023-10-10T22:40:27.910Z,6.80
2023-10-10T22:42:55.853Z,7.03
2023-10-10T22:45:23.705Z,6.82
2023-10-10T22:47:54.864Z,6.50
2023-10-10T22:50:22.576Z,7.05
2023-10-10T22:52:54.311Z,6.40
2023-10-10T22:55:22.126Z,7.40
2023-10-10T22:57:52.392Z,7.15
2023-10-10T23:00:30.304Z,6.68
2023-10-10T23:02:59.752Z,6.63
2023-10-10T23:05:28.427Z,6.38
2023-10-10T23:07:58.635Z,6.13
2023-10-10T23:10:25.602Z,6.65
2023-10-10T23:12:53.420Z,6.65
2023-10-10T23:15:27.874Z,6.47
2023-10-10T23:17:59.925Z,6.95
2023-10-10T23:20:28.680Z,6.43
2023-10-10T23:23:00.019Z,6.35
2023-10-10T23:25:27.502Z,6.38
2023-10-10T23:27:57.960Z,6.22
2023-10-10T23:30:28.917Z,6.18
2023-10-10T23:32:57.737Z,6.57
2023-10-10T23:35:25.984Z,6.95
2023-10-10T23:38:01.618Z,6.43
2023-10-10T23:40:58.391Z,7.15
2023-10-10T23:43:25.222Z,6.85
2023-10-10T23:45:56.030Z,6.75
2023-10-10T23:48:30.323Z,6.68
2023-10-10T23:50:58.199Z,7.13
2023-10-10T23:53:25.092Z,6.68
2023-10-10T23:55:56.047Z,6.10
2023-10-10T23:58:26.576Z,6.40
